Main page
METAR-TAF:

METAR-TAF

Airports :

Derry, Northern Ireland

City of Derry Airport

latitude: 55-03N, longitude: 007-09W, elevation: 9 m

Current weather observation

The report was made 2 hours and 5 minutes ago, at 16:50 UTC
Wind 7 kt from the East/Northeast
Temperature 13°C
Humidity 67%
Pressure 1024 hPa
Visibility 10 km or more
no clouds below 1500 m and no cumulonimbus

METAR: EGAE 261650Z 06007KT CAVOK 13/07 Q1024

Time: 19:55 (18:55 UTC)

Forecast

The report was made 4 hours and 55 minutes ago, at 14:00 UTC
Forecast valid from 26 at 15 UTC to 26 at 17 UTC
Wind 7 kt from the East
Visibility 10 km or more
no clouds below 1500 m and no cumulonimbus

TAF: EGAE 261400Z 2615/2617 08007KT CAVOK

Weather observations and forecasts of more than 4000 airports (METAR and TAF reports).

The available stations are represented by yellow and red dots on the map.

Hover mouse over dot to see the name of the station.

Then click to see weather observations and forecasts.

To change the map : click on the green buttons with a black cross to zoom in, on the green button with a dash to zoom out, or on the green arrows for adjacent maps.


METAR-TAF: